YVD weather

Virden/R.J. (Bob) Andrew Field Regional Aerodrome
Virden, Manitoba, Canada

Public forecast

Using degrees Celsius for public forecast. Weather courtesy of forecast.io.

METAR (pilot weather report)

Closest report is Brandon Municipal Airport, 37.4 nm (69.3 km) E. Retrieved 2019/05/24 18:16 UTC (26 minutes ago):

CYBR 241816Z 09013KT 10SM -RA BKN008 OVC035 09/08 A2978 RMK SC5SC3 SLP098

TAF (pilot weather forecast)

Closest forecast is Brandon Municipal Airport, 37.4 nm (69.3 km) E. Retrieved 2019/05/24 18:39 UTC (3 minutes ago):

TAF CYBR 241738Z 2418/2506 09012G22KT P6SM -RA SCT012 OVC025 TEMPO 2418/2503 4SM -RA BR SCT008 OVC012 FM250300 05010KT P6SM BKN025 BECMG 2504/2506 35008KT RMK NXT FCST BY 250000Z